Time;durP1;ratioP1;P1;durP2;ratioP2;P2;SDS_P1;SDS_P2;PMS_P1;PMS_P2;Temp;Humidity;BMP_temperature;BMP_pressure;BME280_temperature;BME280_humidity;BME280_pressure;Samples;Min_cycle;Max_cycle;Signal;HPM_P1;HPM_P2
2022/05/07 05:00:17;;;;;;;8.47;6.63;;;11.00;97.20;;;;;;1714018;28;20185;-76
2022/05/07 05:01:08;;;;;;;6.65;6.05;;;11.00;97.20;;;;;;1713632;28;20601;-77
2022/05/07 05:02:00;;;;;;;8.10;6.03;;;11.00;97.20;;;;;;1713895;28;20265;-76
2022/05/07 05:02:51;;;;;;;7.18;6.25;;;11.00;97.20;;;;;;1713583;28;20194;-76
2022/05/07 05:03:42;;;;;;;7.30;6.70;;;11.00;97.20;;;;;;1714037;28;20281;-76
2022/05/07 05:04:33;;;;;;;6.20;5.70;;;11.00;97.20;;;;;;1713945;28;20224;-76
2022/05/07 05:05:26;;;;;;;7.30;6.70;;;11.00;97.20;;;;;;1713872;28;20198;-76
2022/05/07 05:06:16;;;;;;;6.90;6.30;;;11.10;97.20;;;;;;1713998;28;20673;-76
2022/05/07 05:07:08;;;;;;;7.10;6.47;;;11.10;97.20;;;;;;1714040;28;20621;-76
2022/05/07 05:07:59;;;;;;;7.15;6.47;;;11.10;97.20;;;;;;1713920;28;20236;-76
2022/05/07 05:08:50;;;;;;;7.20;6.60;;;11.10;97.20;;;;;;1713925;28;20209;-77
2022/05/07 05:09:41;;;;;;;7.38;6.78;;;11.20;97.20;;;;;;1713997;28;20213;-76
2022/05/07 05:10:33;;;;;;;8.37;7.60;;;11.20;97.20;;;;;;1713953;28;20208;-77
2022/05/07 05:11:25;;;;;;;7.90;7.30;;;11.20;97.20;;;;;;1713551;28;20232;-77
2022/05/07 05:12:17;;;;;;;6.90;6.30;;;11.20;97.20;;;;;;1713836;28;20202;-76
2022/05/07 05:13:08;;;;;;;6.80;6.13;;;11.20;97.20;;;;;;1713660;28;20225;-77
2022/05/07 05:14:00;;;;;;;7.80;7.10;;;11.20;97.20;;;;;;1713909;28;20201;-77
2022/05/07 05:15:03;;;;;;;8.85;7.30;;;11.20;97.20;;;;;;1713882;28;20265;-76
2022/05/07 05:15:56;;;;;;;7.22;6.63;;;11.20;97.20;;;;;;1713861;28;20276;-76
2022/05/07 05:16:47;;;;;;;7.53;6.78;;;11.20;97.20;;;;;;1713950;28;20198;-76
2022/05/07 05:17:39;;;;;;;8.13;7.03;;;11.30;97.20;;;;;;1713880;28;20209;-76
2022/05/07 05:18:29;;;;;;;9.48;7.00;;;11.30;97.20;;;;;;1713909;28;20216;-76
2022/05/07 05:19:21;;;;;;;8.20;7.50;;;11.30;97.20;;;;;;1713840;28;20210;-76
2022/05/07 05:20:13;;;;;;;8.27;7.57;;;11.30;97.20;;;;;;1713802;28;20214;-76
2022/05/07 05:21:05;;;;;;;7.38;6.78;;;11.40;97.20;;;;;;1713765;28;20202;-76
2022/05/07 05:21:55;;;;;;;7.13;6.60;;;11.40;97.20;;;;;;1713871;28;20202;-77
2022/05/07 05:22:48;;;;;;;8.10;7.40;;;11.40;97.20;;;;;;1713557;28;20265;-76
2022/05/07 05:23:39;;;;;;;7.50;6.90;;;11.50;97.20;;;;;;1713840;28;20563;-76
2022/05/07 05:24:31;;;;;;;7.17;6.57;;;11.50;97.20;;;;;;1713663;28;20617;-76
2022/05/07 05:25:22;;;;;;;7.35;6.70;;;11.50;97.20;;;;;;1713842;28;20260;-76
2022/05/07 05:26:13;;;;;;;7.23;6.30;;;11.50;97.20;;;;;;1714016;28;20253;-77
2022/05/07 05:27:04;;;;;;;7.93;7.20;;;11.60;97.20;;;;;;1713811;28;20265;-77
2022/05/07 05:27:56;;;;;;;9.30;7.35;;;11.60;97.20;;;;;;1713870;28;20206;-77
2022/05/07 05:28:47;;;;;;;7.63;6.93;;;11.60;97.20;;;;;;1713865;28;20198;-76
2022/05/07 05:29:39;;;;;;;8.57;6.93;;;11.60;97.20;;;;;;1713803;28;20650;-76
2022/05/07 05:30:30;;;;;;;8.00;7.40;;;11.70;97.20;;;;;;1713866;28;20453;-76
2022/05/07 05:31:23;;;;;;;8.23;7.43;;;11.70;97.20;;;;;;1713501;28;20233;-76
2022/05/07 05:32:17;;;;;;;7.95;7.25;;;11.70;97.20;;;;;;1713752;28;20244;-76
2022/05/07 05:33:08;;;;;;;8.13;7.40;;;11.80;97.20;;;;;;1713468;28;20206;-77
2022/05/07 05:34:00;;;;;;;7.20;6.60;;;11.80;97.20;;;;;;1713782;28;20205;-76
2022/05/07 05:34:52;;;;;;;7.82;7.13;;;11.80;97.20;;;;;;1713646;28;20453;-76
2022/05/07 05:35:44;;;;;;;7.93;7.20;;;11.90;97.20;;;;;;1713946;28;20240;-77
2022/05/07 05:36:34;;;;;;;7.75;7.07;;;11.90;97.20;;;;;;1709733;28;20659;-76
2022/05/07 05:37:26;;;;;;;8.13;7.43;;;11.90;97.20;;;;;;1709737;28;20201;-76
2022/05/07 05:38:17;;;;;;;7.72;7.13;;;12.00;97.20;;;;;;1710530;28;20214;-77
2022/05/07 05:39:09;;;;;;;9.07;7.30;;;12.00;97.20;;;;;;1709270;28;20281;-76
2022/05/07 05:40:00;;;;;;;8.32;7.45;;;12.10;97.20;;;;;;1710843;28;20295;-77
2022/05/07 05:40:52;;;;;;;8.03;7.23;;;12.10;97.20;;;;;;1710995;28;20198;-77
2022/05/07 05:41:44;;;;;;;8.07;7.30;;;12.20;97.20;;;;;;1710431;28;20199;-77
2022/05/07 05:42:35;;;;;;;6.82;6.22;;;12.20;97.20;;;;;;1710588;28;20194;-77
2022/05/07 05:43:26;;;;;;;8.38;7.68;;;12.20;97.20;;;;;;1711447;28;20202;-77
2022/05/07 05:44:18;;;;;;;7.73;7.03;;;12.30;97.20;;;;;;1710237;28;20201;-77
2022/05/07 05:45:10;;;;;;;7.72;7.00;;;12.30;97.20;;;;;;1711685;28;20356;-77
2022/05/07 05:46:02;;;;;;;7.68;7.05;;;12.40;97.20;;;;;;1710882;28;20248;-77
2022/05/07 05:46:55;;;;;;;7.40;6.80;;;12.40;97.20;;;;;;1713782;28;20708;-77
2022/05/07 05:47:47;;;;;;;7.88;7.10;;;12.40;97.20;;;;;;1712966;28;20205;-77
2022/05/07 05:48:38;;;;;;;7.55;6.95;;;12.50;97.20;;;;;;1713685;28;20217;-77
2022/05/07 05:49:29;;;;;;;7.57;6.93;;;12.50;97.20;;;;;;1713835;28;20198;-77
2022/05/07 05:50:20;;;;;;;7.15;6.55;;;12.50;97.20;;;;;;1714352;28;20248;-77
2022/05/07 05:51:12;;;;;;;7.67;6.97;;;12.60;97.20;;;;;;1714959;28;20229;-77
2022/05/07 05:52:04;;;;;;;7.47;6.88;;;12.60;97.20;;;;;;1714076;28;20202;-77
2022/05/07 05:52:56;;;;;;;7.90;7.20;;;12.70;97.20;;;;;;1713406;28;20198;-77
2022/05/07 05:53:47;;;;;;;11.30;7.05;;;12.70;97.20;;;;;;1713858;28;20237;-77
2022/05/07 05:54:38;;;;;;;7.43;6.83;;;12.70;97.20;;;;;;1713819;28;20205;-77
2022/05/07 05:55:29;;;;;;;8.82;7.10;;;12.70;97.20;;;;;;1713888;28;20202;-77
2022/05/07 05:56:21;;;;;;;6.93;6.40;;;12.80;97.20;;;;;;1713732;28;20205;-77
2022/05/07 05:57:11;;;;;;;7.40;6.80;;;12.80;97.20;;;;;;1713879;28;20632;-77
2022/05/07 05:58:03;;;;;;;7.50;7.00;;;12.80;97.20;;;;;;1713656;28;20577;-76
2022/05/07 05:58:55;;;;;;;7.88;7.18;;;12.90;97.20;;;;;;1714006;28;20209;-77
2022/05/07 05:59:47;;;;;;;7.45;6.80;;;12.90;97.20;;;;;;1715011;28;20253;-76
2022/05/07 06:00:38;;;;;;;8.73;7.45;;;12.90;97.20;;;;;;1714936;28;20267;-77
2022/05/07 06:01:30;;;;;;;8.20;7.40;;;13.00;97.20;;;;;;1714643;28;20284;-77
2022/05/07 06:02:23;;;;;;;8.25;7.10;;;13.00;97.20;;;;;;1714952;28;20240;-76
2022/05/07 06:03:13;;;;;;;8.75;7.55;;;13.10;97.20;;;;;;1714622;28;20236;-77
2022/05/07 06:04:05;;;;;;;9.10;8.20;;;13.10;97.20;;;;;;1714947;28;20312;-77
2022/05/07 06:04:56;;;;;;;9.13;8.30;;;13.20;97.20;;;;;;1714608;28;20244;-77
2022/05/07 06:05:49;;;;;;;7.88;7.10;;;13.20;97.20;;;;;;1715031;28;20194;-77
2022/05/07 06:06:39;;;;;;;8.70;8.00;;;13.20;97.20;;;;;;1715166;28;20211;-77
2022/05/07 06:07:31;;;;;;;8.73;7.93;;;13.30;97.20;;;;;;1714431;28;20205;-77
2022/05/07 06:08:22;;;;;;;9.07;8.38;;;13.30;97.20;;;;;;1714834;28;20241;-77
2022/05/07 06:09:14;;;;;;;10.57;8.80;;;13.30;97.20;;;;;;1715670;28;20208;-76
2022/05/07 06:10:05;;;;;;;10.43;9.00;;;13.40;97.20;;;;;;1717166;28;20229;-76
2022/05/07 06:10:57;;;;;;;9.05;8.25;;;13.40;97.20;;;;;;1716791;28;20206;-77
2022/05/07 06:11:51;;;;;;;8.35;7.60;;;13.40;97.20;;;;;;1716706;28;20264;-76
2022/05/07 06:12:42;;;;;;;9.10;8.30;;;13.50;97.20;;;;;;1717416;28;20209;-77
2022/05/07 06:13:34;;;;;;;9.73;8.63;;;13.50;97.20;;;;;;1717342;28;20717;-77
2022/05/07 06:14:25;;;;;;;10.70;9.80;;;13.50;97.20;;;;;;1717899;28;20205;-77
2022/05/07 06:15:17;;;;;;;10.27;9.38;;;13.60;97.20;;;;;;1717315;28;20211;-77
2022/05/07 06:16:07;;;;;;;9.98;9.13;;;13.60;97.20;;;;;;1717535;28;20228;-77
2022/05/07 06:16:59;;;;;;;10.37;9.47;;;13.70;97.20;;;;;;1718138;28;20197;-77
2022/05/07 06:17:51;;;;;;;9.95;9.07;;;13.70;97.20;;;;;;1717091;28;20214;-77
2022/05/07 06:18:43;;;;;;;12.85;10.23;;;13.80;97.20;;;;;;1716286;28;20202;-77
2022/05/07 06:19:34;;;;;;;9.63;8.73;;;13.80;97.20;;;;;;1716820;28;20227;-77
2022/05/07 06:20:25;;;;;;;9.33;8.53;;;13.80;97.20;;;;;;1717443;28;20201;-76
2022/05/07 06:21:17;;;;;;;9.60;8.40;;;13.90;97.20;;;;;;1717991;28;20462;-77
2022/05/07 06:22:09;;;;;;;9.23;8.13;;;13.90;97.20;;;;;;1716659;28;20206;-76
2022/05/07 06:22:59;;;;;;;9.02;8.20;;;14.00;97.20;;;;;;1716870;28;20202;-76
2022/05/07 06:23:51;;;;;;;10.30;9.20;;;14.00;97.20;;;;;;1716793;28;20194;-76
2022/05/07 06:28:09;;;;;;;10.68;9.68;;;14.20;97.20;;;;;;1717070;28;20664;-76
2022/05/07 06:29:01;;;;;;;10.60;9.70;;;14.20;97.20;;;;;;1715536;28;20578;-72
2022/05/07 06:29:52;;;;;;;9.13;8.43;;;14.20;97.20;;;;;;1716368;28;20221;-77
2022/05/07 06:30:43;;;;;;;11.03;10.00;;;14.20;97.20;;;;;;1716948;28;20216;-76
2022/05/07 06:31:34;;;;;;;11.85;10.57;;;14.20;97.20;;;;;;1716223;28;20469;-76
2022/05/07 06:32:32;;;;;;;11.37;10.20;;;14.30;97.20;;;;;;1717208;28;20201;-76
2022/05/07 06:33:24;;;;;;;11.63;9.18;;;14.30;97.20;;;;;;1716393;28;20209;-76
2022/05/07 06:34:19;;;;;;;11.77;10.68;;;14.30;97.20;;;;;;1716995;28;20217;-76
2022/05/07 06:35:10;;;;;;;11.48;10.07;;;14.40;97.20;;;;;;1716950;28;20202;-76
2022/05/07 06:36:02;;;;;;;11.87;10.73;;;14.40;97.20;;;;;;1716752;28;20232;-77
2022/05/07 06:36:54;;;;;;;11.68;10.55;;;14.50;97.20;;;;;;1716363;28;20448;-76
2022/05/07 06:37:48;;;;;;;12.07;10.55;;;14.50;97.20;;;;;;1715418;28;20661;-76
2022/05/07 06:38:38;;;;;;;13.65;10.80;;;14.50;97.20;;;;;;1715107;28;20296;-77
2022/05/07 06:39:31;;;;;;;12.00;11.00;;;14.60;97.20;;;;;;1715283;28;20210;-77
2022/05/07 06:40:22;;;;;;;19.85;11.23;;;14.60;97.20;;;;;;1714870;28;20209;-76
2022/05/07 06:41:14;;;;;;;12.17;10.97;;;14.60;97.20;;;;;;1716061;28;20294;-76
2022/05/07 06:42:06;;;;;;;11.63;10.52;;;14.70;97.20;;;;;;1716706;28;20832;-76
2022/05/07 06:42:57;;;;;;;12.13;10.35;;;14.70;97.20;;;;;;1716290;28;20197;-76
2022/05/07 06:43:48;;;;;;;10.70;9.80;;;14.80;97.20;;;;;;1716530;28;20206;-76
2022/05/07 06:44:40;;;;;;;11.50;10.37;;;14.80;97.20;;;;;;1716965;28;20262;-76
2022/05/07 06:45:31;;;;;;;12.48;11.27;;;14.90;97.20;;;;;;1716900;28;20213;-77
2022/05/07 06:46:22;;;;;;;10.77;9.77;;;14.90;97.20;;;;;;1718799;28;20201;-77
2022/05/07 06:47:14;;;;;;;17.08;9.88;;;15.00;97.20;;;;;;1718588;28;20206;-77
2022/05/07 06:48:08;;;;;;;9.50;8.70;;;15.00;97.20;;;;;;1718433;28;20202;-77
2022/05/07 06:49:00;;;;;;;10.45;8.93;;;15.00;97.20;;;;;;1717600;28;20293;-77
2022/05/07 06:49:52;;;;;;;10.52;9.55;;;15.10;97.20;;;;;;1718132;28;20205;-77
2022/05/07 06:50:42;;;;;;;10.75;9.65;;;15.10;97.20;;;;;;1717477;28;20245;-77
2022/05/07 06:51:35;;;;;;;9.83;8.80;;;15.20;97.20;;;;;;1716787;28;20218;-75
2022/05/07 06:52:26;;;;;;;10.93;9.85;;;15.20;97.20;;;;;;1715404;28;20803;-76
2022/05/07 06:53:17;;;;;;;10.00;9.00;;;15.30;97.20;;;;;;1716958;28;20235;-76
2022/05/07 06:54:08;;;;;;;9.77;8.85;;;15.30;97.20;;;;;;1717138;28;20844;-76
2022/05/07 06:55:00;;;;;;;10.63;9.00;;;15.40;97.20;;;;;;1717037;28;20572;-76
2022/05/07 06:55:58;;;;;;;10.40;9.40;;;15.40;97.20;;;;;;1717281;28;20937;-76
2022/05/07 06:56:50;;;;;;;9.93;8.93;;;15.50;97.20;;;;;;1716679;28;20736;-76
2022/05/07 06:57:41;;;;;;;11.07;10.07;;;15.50;97.20;;;;;;1715898;28;20198;-76
2022/05/07 06:58:35;;;;;;;11.00;10.00;;;15.60;97.20;;;;;;1710383;28;20207;-76
2022/05/07 06:59:26;;;;;;;10.70;9.65;;;15.60;97.20;;;;;;1710236;28;20209;-76
2022/05/07 07:00:18;;;;;;;13.35;10.85;;;15.70;97.20;;;;;;1711122;28;20202;-76
2022/05/07 07:01:08;;;;;;;11.43;10.13;;;15.70;97.20;;;;;;1716239;28;20221;-76
2022/05/07 07:02:00;;;;;;;11.20;10.30;;;15.80;97.20;;;;;;1716663;28;20201;-76
2022/05/07 07:02:51;;;;;;;15.65;10.80;;;15.80;97.20;;;;;;1716296;28;20206;-76
2022/05/07 07:03:42;;;;;;;14.10;10.50;;;15.90;97.20;;;;;;1715761;28;20210;-76
2022/05/07 07:04:34;;;;;;;10.55;9.68;;;15.90;97.20;;;;;;1716775;28;20201;-76
2022/05/07 07:05:26;;;;;;;11.30;10.30;;;16.00;97.20;;;;;;1716924;28;20213;-76
2022/05/07 07:06:17;;;;;;;13.63;10.20;;;16.00;97.20;;;;;;1717587;28;20803;-77
2022/05/07 07:07:09;;;;;;;11.10;10.10;;;16.10;97.20;;;;;;1717498;28;20662;-77
2022/05/07 07:08:00;;;;;;;11.25;10.15;;;16.10;97.20;;;;;;1717479;28;20445;-77
2022/05/07 07:08:53;;;;;;;10.27;9.27;;;16.20;97.20;;;;;;1718559;28;20206;-78
2022/05/07 07:09:43;;;;;;;10.40;9.50;;;16.20;97.20;;;;;;1717120;28;20341;-76
2022/05/07 07:10:35;;;;;;;13.70;9.60;;;16.30;97.20;;;;;;1710101;28;20199;-78
2022/05/07 07:11:27;;;;;;;10.75;9.63;;;16.30;97.20;;;;;;1709326;28;20237;-76
2022/05/07 07:12:20;;;;;;;12.48;10.82;;;16.40;97.20;;;;;;1710245;28;20213;-77
2022/05/07 07:13:11;;;;;;;10.05;9.02;;;16.40;97.20;;;;;;1709688;28;20256;-78
2022/05/07 07:14:03;;;;;;;10.77;9.40;;;16.50;97.20;;;;;;1708987;28;20227;-77
2022/05/07 07:14:54;;;;;;;10.88;9.63;;;16.50;97.20;;;;;;1710252;28;20237;-76
2022/05/07 07:15:46;;;;;;;10.50;8.90;;;16.60;97.20;;;;;;1709850;28;20203;-77
2022/05/07 07:16:37;;;;;;;15.88;9.30;;;16.60;97.20;;;;;;1709281;28;20225;-76
2022/05/07 07:17:28;;;;;;;16.63;10.00;;;16.60;97.20;;;;;;1709416;28;20199;-77
2022/05/07 07:18:19;;;;;;;11.48;9.55;;;16.60;97.20;;;;;;1709222;28;20206;-77
2022/05/07 07:19:11;;;;;;;9.80;8.80;;;16.70;97.20;;;;;;1710277;28;20195;-76
2022/05/07 07:20:05;;;;;;;10.52;9.38;;;16.70;97.20;;;;;;1709830;28;20213;-76
2022/05/07 07:20:57;;;;;;;10.50;9.30;;;16.80;97.20;;;;;;1709444;28;20195;-76
2022/05/07 07:21:49;;;;;;;9.93;8.98;;;16.80;97.20;;;;;;1709019;28;20199;-76
2022/05/07 07:22:41;;;;;;;9.40;8.50;;;16.90;97.20;;;;;;1709225;28;20820;-75
2022/05/07 07:23:32;;;;;;;10.15;9.15;;;16.90;97.20;;;;;;1709414;28;20215;-75
2022/05/07 07:24:23;;;;;;;8.70;8.00;;;17.00;97.20;;;;;;1710194;28;20205;-76
2022/05/07 07:25:14;;;;;;;14.40;8.35;;;17.00;97.20;;;;;;1711902;28;20202;-77
2022/05/07 07:26:06;;;;;;;9.38;8.43;;;17.10;97.20;;;;;;1714950;28;20209;-77
2022/05/07 07:26:57;;;;;;;11.77;9.50;;;17.10;97.20;;;;;;1709381;28;20199;-76
2022/05/07 07:27:49;;;;;;;11.30;10.20;;;17.20;97.20;;;;;;1711978;28;20204;-76
2022/05/07 07:28:40;;;;;;;10.55;8.45;;;17.20;97.20;;;;;;1714961;28;20241;-77
2022/05/07 07:29:33;;;;;;;9.75;8.85;;;17.30;97.20;;;;;;1714717;28;20926;-77
2022/05/07 07:30:23;;;;;;;9.73;8.93;;;17.30;97.20;;;;;;1714578;28;20209;-76
2022/05/07 07:31:16;;;;;;;11.33;9.60;;;17.40;97.20;;;;;;1714536;28;20241;-77
2022/05/07 07:32:08;;;;;;;9.90;8.90;;;17.40;97.20;;;;;;1715279;28;20206;-77
2022/05/07 07:32:59;;;;;;;8.68;7.88;;;17.50;97.20;;;;;;1716039;28;20634;-76
2022/05/07 07:33:51;;;;;;;10.32;9.20;;;17.50;97.20;;;;;;1716512;28;20213;-77
2022/05/07 07:34:42;;;;;;;10.95;9.90;;;17.60;97.20;;;;;;1716080;28;20298;-76
2022/05/07 07:35:35;;;;;;;9.30;8.50;;;17.60;97.20;;;;;;1715860;28;20214;-77
2022/05/07 07:36:26;;;;;;;10.30;9.30;;;17.60;97.20;;;;;;1715167;28;20217;-77
2022/05/07 07:37:17;;;;;;;11.03;10.03;;;17.70;97.20;;;;;;1713175;28;20204;-77
2022/05/07 07:38:08;;;;;;;9.82;8.85;;;17.70;97.20;;;;;;1707431;28;20218;-77
2022/05/07 07:39:04;;;;;;;10.60;9.50;;;17.80;97.20;;;;;;1714585;28;20201;-76
2022/05/07 07:39:54;;;;;;;11.45;10.00;;;17.80;97.20;;;;;;1712876;28;20442;-77
2022/05/07 07:40:50;;;;;;;11.70;10.50;;;17.90;97.20;;;;;;1708243;28;20194;-76
2022/05/07 07:41:41;;;;;;;12.73;10.15;;;17.90;97.20;;;;;;1707263;28;20341;-77
2022/05/07 07:42:32;;;;;;;11.23;10.23;;;18.00;97.20;;;;;;1706790;28;20210;-76
2022/05/07 07:43:24;;;;;;;11.57;10.47;;;18.00;97.20;;;;;;1707897;28;20202;-77
2022/05/07 07:44:14;;;;;;;13.07;10.60;;;18.10;97.20;;;;;;1714188;28;20217;-76
2022/05/07 07:48:35;;;;;;;11.35;10.35;;;18.10;97.20;;;;;;1713994;28;20218;-77
2022/05/07 07:49:26;;;;;;;12.20;11.07;;;18.20;97.20;;;;;;1714196;28;20206;-76
2022/05/07 07:50:18;;;;;;;11.60;10.60;;;18.30;97.20;;;;;;1713961;28;20201;-76
2022/05/07 07:51:11;;;;;;;13.07;11.80;;;18.30;97.20;;;;;;1713926;28;20717;-76
2022/05/07 07:52:02;;;;;;;11.90;10.65;;;18.40;97.20;;;;;;1714191;28;20205;-76
2022/05/07 07:52:54;;;;;;;12.77;11.48;;;18.40;97.20;;;;;;1713842;28;20214;-76
2022/05/07 07:53:46;;;;;;;12.38;11.10;;;18.50;97.20;;;;;;1713836;28;20216;-76
2022/05/07 07:54:37;;;;;;;12.63;11.35;;;18.50;97.20;;;;;;1713347;28;20217;-75
2022/05/07 07:55:29;;;;;;;12.33;11.13;;;18.60;97.20;;;;;;1713852;28;20218;-76
2022/05/07 07:56:21;;;;;;;13.00;11.80;;;18.60;97.20;;;;;;1708136;28;20241;-76
2022/05/07 07:57:12;;;;;;;13.07;11.48;;;18.70;97.20;;;;;;1707383;28;20728;-76
2022/05/07 07:58:05;;;;;;;14.00;12.70;;;18.70;97.20;;;;;;1707308;28;20670;-76
2022/05/07 07:58:57;;;;;;;11.93;10.93;;;18.80;97.20;;;;;;1706914;28;20732;-75
2022/05/07 07:59:48;;;;;;;12.73;11.55;;;18.90;97.20;;;;;;1706793;28;20237;-75
2022/05/07 08:00:42;;;;;;;13.47;11.80;;;18.90;97.20;;;;;;1706771;28;20202;-76
2022/05/07 08:01:33;;;;;;;12.50;11.20;;;19.00;97.20;;;;;;1706191;28;20658;-76
2022/05/07 08:02:24;;;;;;;13.13;11.93;;;19.10;97.20;;;;;;1706519;28;20218;-76
2022/05/07 08:03:17;;;;;;;13.48;12.15;;;19.10;97.20;;;;;;1706668;28;20652;-76
2022/05/07 08:04:09;;;;;;;13.95;12.43;;;19.20;97.20;;;;;;1706598;28;20670;-75
2022/05/07 08:05:00;;;;;;;17.20;13.02;;;19.20;97.20;;;;;;1711494;28;20640;-75
2022/05/07 08:05:53;;;;;;;13.67;12.37;;;19.30;97.20;;;;;;1713166;28;20256;-76
2022/05/07 08:11:39;;;;;;;14.52;13.18;;;19.30;97.20;;;;;;1713350;28;20209;-75
2022/05/07 08:11:46;;;;;;;13.85;12.45;;;19.60;97.20;;;;;;1679667;29;20261;-76
2022/05/07 08:12:37;;;;;;;13.98;12.50;;;19.70;97.20;;;;;;1699991;29;20555;-76
2022/05/07 08:13:33;;;;;;;13.37;12.10;;;19.70;97.20;;;;;;1705942;29;20669;-76
2022/05/07 08:14:25;;;;;;;13.93;12.43;;;19.80;97.20;;;;;;1705714;29;20554;-75
2022/05/07 08:15:16;;;;;;;14.25;12.88;;;19.80;97.20;;;;;;1710223;28;20743;-76
2022/05/07 08:16:08;;;;;;;14.03;12.63;;;19.90;97.20;;;;;;1713931;28;20590;-76
2022/05/07 08:17:00;;;;;;;13.73;12.45;;;19.90;97.20;;;;;;1714069;28;20205;-76
2022/05/07 08:17:52;;;;;;;15.00;12.55;;;20.00;97.20;;;;;;1714101;28;20684;-75
2022/05/07 08:18:43;;;;;;;14.40;13.00;;;20.00;97.20;;;;;;1713955;28;20213;-75
2022/05/07 08:19:34;;;;;;;14.65;13.27;;;20.10;97.20;;;;;;1714161;28;20693;-76
2022/05/07 08:20:26;;;;;;;15.07;13.50;;;20.20;97.20;;;;;;1713938;28;20201;-76
2022/05/07 08:21:17;;;;;;;14.48;13.07;;;20.20;97.20;;;;;;1713565;28;20229;-76
2022/05/07 08:22:10;;;;;;;14.70;13.50;;;20.30;97.20;;;;;;1713766;28;20194;-76
2022/05/07 08:23:01;;;;;;;14.05;12.85;;;20.30;97.20;;;;;;1713933;28;20437;-76
2022/05/07 08:23:52;;;;;;;14.00;12.20;;;20.30;97.20;;;;;;1713990;28;20205;-75
2022/05/07 08:24:43;;;;;;;13.80;12.70;;;20.40;97.20;;;;;;1713913;28;20194;-76
2022/05/07 08:25:35;;;;;;;14.00;12.30;;;20.50;97.20;;;;;;1714036;28;20198;-75
2022/05/07 08:26:26;;;;;;;15.55;14.07;;;20.50;97.20;;;;;;1714024;28;20237;-76
2022/05/07 08:27:18;;;;;;;15.63;14.03;;;20.60;97.20;;;;;;1714019;28;20665;-75
2022/05/07 08:28:08;;;;;;;15.13;13.63;;;20.60;97.20;;;;;;1713974;28;20496;-75
2022/05/07 08:29:00;;;;;;;15.67;14.07;;;20.70;97.20;;;;;;1713997;28;20213;-76
2022/05/07 08:29:55;;;;;;;20.88;14.40;;;20.70;97.20;;;;;;1714060;28;20343;-76
2022/05/07 08:30:48;;;;;;;14.98;13.65;;;20.70;97.20;;;;;;1713921;28;20211;-75
2022/05/07 08:31:39;;;;;;;14.35;13.15;;;20.70;97.20;;;;;;1713645;28;20198;-76
2022/05/07 08:32:30;;;;;;;15.02;13.20;;;20.70;97.20;;;;;;1711167;28;21415;-76
2022/05/07 08:33:22;;;;;;;13.60;12.50;;;20.70;97.20;;;;;;1707356;28;20202;-76
2022/05/07 08:34:13;;;;;;;13.52;12.32;;;20.80;97.20;;;;;;1707376;28;20238;-76
2022/05/07 08:35:05;;;;;;;12.63;11.47;;;20.90;97.20;;;;;;1711926;28;20217;-75
2022/05/07 08:35:56;;;;;;;13.45;12.25;;;20.90;97.20;;;;;;1713948;28;20496;-76
2022/05/07 08:36:48;;;;;;;12.90;11.80;;;21.00;97.20;;;;;;1713924;28;20220;-76
2022/05/07 08:37:40;;;;;;;14.18;12.95;;;21.10;97.20;;;;;;1713915;28;20209;-76
2022/05/07 08:38:31;;;;;;;14.43;12.85;;;21.10;97.20;;;;;;1713893;28;20624;-76
2022/05/07 08:39:25;;;;;;;13.43;12.13;;;21.20;97.20;;;;;;1713924;28;20210;-75
2022/05/07 08:40:17;;;;;;;16.23;14.68;;;21.30;97.20;;;;;;1713930;28;20296;-76
2022/05/07 08:41:10;;;;;;;28.80;24.20;;;21.30;97.20;;;;;;1713611;28;20226;-75
2022/05/07 08:42:03;;;;;;;17.58;15.85;;;21.40;97.20;;;;;;1713938;28;20213;-76
2022/05/07 08:42:54;;;;;;;13.93;12.73;;;21.50;97.20;;;;;;1713903;28;20240;-76
2022/05/07 08:43:46;;;;;;;14.20;13.00;;;21.50;97.20;;;;;;1708810;28;20320;-76
2022/05/07 08:44:37;;;;;;;15.05;13.68;;;21.60;97.20;;;;;;1712981;28;20563;-76
2022/05/07 08:45:28;;;;;;;16.67;15.03;;;21.60;97.20;;;;;;1712153;28;20198;-75
2022/05/07 08:46:19;;;;;;;14.38;12.98;;;21.70;97.20;;;;;;1713953;28;20354;-75
2022/05/07 08:47:11;;;;;;;13.85;12.68;;;21.70;97.20;;;;;;1712870;28;20288;-75
2022/05/07 08:48:02;;;;;;;14.60;13.20;;;21.80;97.20;;;;;;1711082;28;20257;-75
2022/05/07 08:48:56;;;;;;;13.00;11.80;;;21.80;97.20;;;;;;1708900;28;20198;-75
2022/05/07 08:49:46;;;;;;;18.38;16.67;;;21.80;97.20;;;;;;1713870;28;20205;-75
2022/05/07 08:50:39;;;;;;;16.83;15.00;;;21.90;97.20;;;;;;1713143;28;20198;-75
2022/05/07 08:51:31;;;;;;;18.48;16.88;;;21.90;97.20;;;;;;1706865;28;20227;-75
2022/05/07 08:52:23;;;;;;;16.08;14.57;;;22.00;97.20;;;;;;1707087;28;20214;-75
2022/05/07 08:53:15;;;;;;;17.65;14.20;;;22.00;97.20;;;;;;1707379;28;20290;-75
2022/05/07 08:54:10;;;;;;;14.20;12.95;;;22.10;97.20;;;;;;1707212;28;20207;-75
2022/05/07 08:55:01;;;;;;;17.30;14.18;;;22.10;97.20;;;;;;1710071;28;20226;-75
2022/05/07 08:55:54;;;;;;;13.80;12.40;;;22.10;97.20;;;;;;1713927;28;20281;-75
2022/05/07 08:56:45;;;;;;;13.15;11.52;;;22.20;97.20;;;;;;1713856;28;20944;-75
2022/05/07 08:57:36;;;;;;;12.32;11.18;;;22.20;97.20;;;;;;1713873;28;20212;-75
2022/05/07 08:58:28;;;;;;;15.30;13.80;;;22.30;97.20;;;;;;1713790;28;20211;-75
2022/05/07 08:59:19;;;;;;;12.25;11.23;;;22.40;97.20;;;;;;1713846;28;20206;-75
2022/05/07 09:00:11;;;;;;;12.90;11.70;;;22.40;97.20;;;;;;1713879;28;20206;-75
2022/05/07 09:01:02;;;;;;;15.63;14.25;;;22.50;97.20;;;;;;1713532;28;20206;-75
2022/05/07 09:01:55;;;;;;;12.90;11.77;;;22.50;97.20;;;;;;1713623;28;20193;-75
2022/05/07 09:02:48;;;;;;;13.10;11.90;;;22.60;97.20;;;;;;1713233;28;20450;-75
2022/05/07 09:03:41;;;;;;;14.48;13.02;;;22.60;97.20;;;;;;1707290;28;20202;-75
2022/05/07 09:04:32;;;;;;;14.15;12.95;;;22.60;97.20;;;;;;1707327;28;20238;-75
2022/05/07 09:05:33;;;;;;;12.57;11.37;;;22.60;97.20;;;;;;1713330;28;20234;-75
2022/05/07 09:06:26;;;;;;;12.80;11.60;;;22.70;97.20;;;;;;1714186;28;20630;-75
2022/05/07 09:07:17;;;;;;;12.63;11.48;;;22.70;97.20;;;;;;1713999;28;20293;-75
2022/05/07 09:08:10;;;;;;;14.93;13.57;;;22.70;97.20;;;;;;1713685;28;20213;-75
2022/05/07 09:09:05;;;;;;;14.07;12.55;;;22.80;97.20;;;;;;1713829;28;20240;-75
2022/05/07 09:09:57;;;;;;;11.98;10.88;;;22.80;97.20;;;;;;1713843;28;20267;-75
2022/05/07 09:10:53;;;;;;;12.40;11.20;;;22.90;97.20;;;;;;1713640;28;20264;-75
2022/05/07 09:11:44;;;;;;;11.23;10.23;;;23.00;97.20;;;;;;1713700;28;20673;-75
2022/05/07 09:12:35;;;;;;;11.25;10.27;;;23.00;97.20;;;;;;1713846;28;20490;-75
2022/05/07 09:13:27;;;;;;;12.77;11.50;;;23.10;97.20;;;;;;1713777;28;20232;-75
2022/05/07 09:14:19;;;;;;;13.52;12.32;;;23.20;97.20;;;;;;1713690;28;20695;-75
2022/05/07 09:15:10;;;;;;;13.88;12.77;;;23.20;97.20;;;;;;1713440;28;20711;-75
2022/05/07 09:16:02;;;;;;;12.32;11.40;;;23.30;97.20;;;;;;1713695;28;20244;-75
2022/05/07 09:16:54;;;;;;;17.20;15.50;;;23.30;97.20;;;;;;1713916;28;20614;-75
2022/05/07 09:17:47;;;;;;;12.70;11.60;;;23.40;97.20;;;;;;1713791;28;20198;-75
2022/05/07 09:18:38;;;;;;;11.77;10.77;;;23.50;97.20;;;;;;1713800;28;20202;-75
2022/05/07 09:19:30;;;;;;;10.63;9.75;;;23.60;97.20;;;;;;1713883;28;20236;-77
2022/05/07 09:20:23;;;;;;;10.65;9.65;;;23.70;97.20;;;;;;1713851;28;20205;-77
2022/05/07 09:21:19;;;;;;;9.05;8.35;;;23.70;97.20;;;;;;1713553;28;20229;-77
2022/05/07 09:22:11;;;;;;;7.65;6.93;;;23.80;97.20;;;;;;1713985;28;20206;-77
2022/05/07 09:23:02;;;;;;;9.23;8.43;;;23.80;97.20;;;;;;1713752;28;20203;-77
2022/05/07 09:24:06;;;;;;;10.90;8.40;;;23.90;97.20;;;;;;1713565;28;20200;-77
2022/05/07 09:24:57;;;;;;;9.73;9.00;;;23.90;97.20;;;;;;1713932;28;20935;-77
2022/05/07 09:25:49;;;;;;;9.70;8.80;;;23.90;97.20;;;;;;1713813;28;20268;-75
2022/05/07 09:26:43;;;;;;;9.32;8.27;;;23.80;97.20;;;;;;1713795;28;20561;-75
2022/05/07 09:27:44;;;;;;;9.73;8.38;;;23.70;97.20;;;;;;1713874;28;20244;-75
2022/05/07 09:28:38;;;;;;;10.77;9.77;;;23.70;97.20;;;;;;1713929;28;20225;-77
2022/05/07 09:29:30;;;;;;;8.85;7.95;;;23.70;97.20;;;;;;1713781;28;20719;-77
2022/05/07 09:30:24;;;;;;;9.75;8.82;;;23.70;97.20;;;;;;1714005;28;20232;-77
2022/05/07 09:31:23;;;;;;;9.57;7.20;;;23.80;97.20;;;;;;1713610;28;20226;-77
2022/05/07 09:32:15;;;;;;;7.43;6.35;;;23.90;97.20;;;;;;1713979;28;20241;-77
2022/05/07 09:33:06;;;;;;;7.40;6.70;;;24.00;97.20;;;;;;1714240;28;20217;-77
2022/05/07 09:35:47;;;;;;;7.22;6.63;;;24.20;97.20;;;;;;1713791;28;20222;-75
2022/05/07 09:36:24;;;;;;;6.10;5.57;;;24.50;97.20;;;;;;1708018;29;20201;-75
2022/05/07 09:37:16;;;;;;;7.07;5.07;;;24.60;97.20;;;;;;1708274;28;20204;-75
2022/05/07 09:38:08;;;;;;;6.63;5.85;;;24.70;97.20;;;;;;1707959;28;20442;-75
2022/05/07 09:38:59;;;;;;;7.78;5.63;;;24.80;97.20;;;;;;1707788;28;20345;-76